Bryce Canyon Airport Bryce Canyon US
ICAO: KBCE
IATA: BCE
Category: Medium
Scheduled Services: No

Elevation: 7590 ft
TransAlt. 18000 ft.

Airport Communications:
ASOS:135.475
CEDAR CITY RDO:122.2
CTAF/UNICOM:122.8

KBCE Zoom In..

Runways:

(A) RW 03 length 7395 ft width 75 ft
---- / hdg 33

(B) RW 21 length 7395 ft width 75 ft
---- / hdg 213

Location; KBCE
Day. 05 / Time. 13.53 Zulu
* Altimeter: 30.19
* Temperature: 14° c. 57.2°f.
* Wind from: 270° Speed 05 kn.
Dewpoint: 01° c.
Visibility: 10 Statute Miles.
Clouds: Clear (automated report).

KBCE 051353Z AUTO 27005KT 10SM CLR 14/01 A3019 RMK AO2 SLP089 T01390006


Wind From 270°
Speed 05 kn.

 
 
jpsmedia worldairports.se 2020   terms of use